Time;durP1;ratioP1;P1;durP2;ratioP2;P2;SDS_P1;SDS_P2;PMS_P1;PMS_P2;Temp;Humidity;BMP_temperature;BMP_pressure;BME280_temperature;BME280_humidity;BME280_pressure;Samples;Min_cycle;Max_cycle;Signal;HPM_P1;HPM_P2
2023/10/22 00:02:12;;;;;;;22.63;16.23;;;10.90;99.90;;;;;;8322664;28;20206;-60
2023/10/22 00:06:12;;;;;;;29.47;19.10;;;11.00;99.90;;;;;;8318415;28;20182;-63
2023/10/22 00:10:13;;;;;;;28.10;17.20;;;11.10;99.90;;;;;;8328677;28;20201;-62
2023/10/22 00:14:14;;;;;;;22.53;16.30;;;11.10;99.90;;;;;;8321915;28;20233;-61
2023/10/22 00:18:15;;;;;;;23.00;15.37;;;11.10;99.90;;;;;;8319057;28;20182;-63
2023/10/22 00:22:16;;;;;;;24.77;15.43;;;11.10;99.90;;;;;;8323938;28;20186;-62
2023/10/22 00:26:17;;;;;;;22.17;16.17;;;11.10;99.90;;;;;;8327153;28;20200;-62
2023/10/22 00:30:18;;;;;;;20.80;15.00;;;11.10;99.90;;;;;;8327289;28;20190;-61
2023/10/22 00:34:19;;;;;;;21.30;15.87;;;11.10;99.90;;;;;;8361258;28;20229;-62
2023/10/22 00:38:20;;;;;;;18.70;14.23;;;11.10;99.90;;;;;;8329413;28;20193;-61
2023/10/22 00:42:22;;;;;;;19.57;12.83;;;11.20;99.90;;;;;;8330062;28;20177;-66
2023/10/22 00:46:25;;;;;;;16.80;11.97;;;11.20;99.90;;;;;;8329111;28;20476;-67
2023/10/22 00:50:26;;;;;;;16.83;11.97;;;11.20;99.90;;;;;;8329364;28;20354;-68
2023/10/22 00:54:29;;;;;;;24.73;16.50;;;11.20;99.90;;;;;;8328883;28;20256;-67
2023/10/22 00:58:34;;;;;;;28.17;19.07;;;11.20;99.90;;;;;;8330173;28;20202;-66
2023/10/22 01:02:37;;;;;;;20.23;15.97;;;11.10;99.90;;;;;;8330050;28;20242;-66
2023/10/22 01:06:38;;;;;;;18.93;14.93;;;11.00;99.90;;;;;;8329423;28;20194;-68
2023/10/22 01:10:39;;;;;;;16.70;13.47;;;10.90;99.90;;;;;;8328084;28;20190;-69
2023/10/22 01:14:40;;;;;;;18.27;13.53;;;10.90;99.90;;;;;;8335959;28;20460;-69
2023/10/22 01:18:41;;;;;;;18.03;12.53;;;11.00;99.90;;;;;;8328931;28;20183;-67
2023/10/22 01:22:42;;;;;;;16.63;11.53;;;11.00;99.90;;;;;;8329102;28;20170;-69
2023/10/22 01:26:44;;;;;;;19.20;11.47;;;11.00;99.90;;;;;;8330184;28;20209;-68
2023/10/22 01:30:46;;;;;;;14.77;11.17;;;11.10;99.90;;;;;;8335690;28;20194;-66
2023/10/22 01:34:46;;;;;;;13.20;9.83;;;11.10;99.90;;;;;;8335868;28;20521;-68
2023/10/22 01:38:47;;;;;;;11.27;8.93;;;11.10;99.90;;;;;;8327401;28;20183;-68
2023/10/22 01:42:48;;;;;;;19.80;13.73;;;11.20;99.90;;;;;;8326594;28;20524;-66
2023/10/22 01:46:50;;;;;;;16.90;12.40;;;11.20;99.90;;;;;;8330302;28;20191;-66
2023/10/22 01:50:50;;;;;;;14.70;11.60;;;11.20;99.90;;;;;;8342233;28;20195;-65
2023/10/22 01:54:52;;;;;;;12.07;9.93;;;11.10;99.90;;;;;;8326471;28;20242;-67
2023/10/22 01:58:53;;;;;;;12.63;9.97;;;11.20;99.90;;;;;;8330894;28;20210;-67
2023/10/22 02:02:54;;;;;;;12.47;9.17;;;11.20;99.90;;;;;;8334062;28;20289;-63
2023/10/22 02:06:55;;;;;;;11.17;8.87;;;11.30;99.90;;;;;;8325539;28;20328;-61
2023/10/22 02:10:55;;;;;;;12.93;11.27;;;11.30;99.90;;;;;;8323664;28;20568;-63
2023/10/22 02:14:56;;;;;;;14.40;10.60;;;11.40;99.90;;;;;;8324790;28;20214;-64
2023/10/22 02:18:57;;;;;;;21.40;12.20;;;11.50;99.90;;;;;;8321464;28;20173;-62
2023/10/22 02:22:59;;;;;;;14.17;10.97;;;11.50;99.90;;;;;;8324462;28;20285;-60
2023/10/22 02:26:59;;;;;;;14.60;11.53;;;11.50;99.90;;;;;;8323694;28;20186;-61
2023/10/22 02:31:00;;;;;;;18.90;12.80;;;11.60;99.90;;;;;;8319926;28;20196;-62
2023/10/22 02:35:02;;;;;;;15.73;10.77;;;11.60;99.90;;;;;;8337839;28;20298;-62
2023/10/22 02:39:08;;;;;;;13.57;9.73;;;11.60;99.90;;;;;;8340601;28;20263;-62
2023/10/22 02:43:10;;;;;;;11.83;9.60;;;11.60;99.90;;;;;;8327514;28;20188;-62
2023/10/22 02:47:11;;;;;;;13.60;10.47;;;11.60;99.90;;;;;;8324489;28;20198;-61
2023/10/22 02:51:11;;;;;;;15.20;11.43;;;11.60;99.90;;;;;;8327219;28;20178;-63
2023/10/22 02:55:12;;;;;;;12.90;10.50;;;11.60;99.90;;;;;;8326855;28;20227;-62
2023/10/22 02:59:13;;;;;;;15.23;11.13;;;11.60;99.90;;;;;;8326962;28;20615;-61
2023/10/22 03:03:14;;;;;;;16.13;11.97;;;11.70;99.90;;;;;;8326992;28;20182;-63
2023/10/22 03:07:15;;;;;;;13.93;12.23;;;11.70;99.90;;;;;;8325325;28;20204;-63
2023/10/22 03:11:19;;;;;;;16.83;12.67;;;11.60;99.90;;;;;;8322424;28;20178;-62
2023/10/22 03:15:20;;;;;;;16.50;12.20;;;11.70;99.90;;;;;;8321733;28;20217;-64
2023/10/22 03:19:20;;;;;;;19.10;13.87;;;11.70;99.90;;;;;;8320566;28;20188;-64
2023/10/22 03:23:22;;;;;;;18.17;15.13;;;11.80;99.90;;;;;;8325831;28;20213;-63
2023/10/22 03:27:22;;;;;;;18.00;14.87;;;11.90;99.90;;;;;;8321927;28;20186;-63
2023/10/22 03:31:24;;;;;;;20.70;15.00;;;11.90;99.90;;;;;;8319083;28;20197;-63
2023/10/22 03:35:25;;;;;;;21.07;15.80;;;11.90;99.90;;;;;;8321516;28;20225;-64
2023/10/22 03:39:27;;;;;;;18.10;14.10;;;11.90;99.90;;;;;;8322580;28;20205;-62
2023/10/22 03:43:28;;;;;;;23.27;15.47;;;11.90;99.90;;;;;;8329026;28;20220;-62
2023/10/22 03:47:28;;;;;;;24.13;16.20;;;12.00;99.90;;;;;;8321081;28;20193;-63
2023/10/22 03:51:29;;;;;;;20.87;16.20;;;12.00;99.90;;;;;;8320373;28;20250;-61
2023/10/22 03:55:30;;;;;;;20.17;15.17;;;12.00;99.90;;;;;;8322147;28;20221;-63
2023/10/22 03:59:30;;;;;;;20.40;15.03;;;12.10;99.90;;;;;;8324323;28;20202;-63
2023/10/22 04:03:31;;;;;;;24.07;18.20;;;12.10;99.90;;;;;;8320026;28;20600;-63
2023/10/22 04:07:32;;;;;;;21.00;16.30;;;12.10;99.90;;;;;;8320090;28;20277;-61
2023/10/22 04:11:32;;;;;;;22.50;15.97;;;12.10;99.90;;;;;;8338968;28;20186;-63
2023/10/22 04:15:37;;;;;;;19.67;14.60;;;12.10;99.90;;;;;;8320918;28;20206;-62
2023/10/22 04:19:38;;;;;;;16.37;13.17;;;12.00;99.90;;;;;;8322859;28;20178;-62
2023/10/22 04:23:40;;;;;;;17.47;13.97;;;12.10;99.90;;;;;;8337357;28;20205;-62
2023/10/22 04:27:40;;;;;;;15.10;13.23;;;12.00;99.90;;;;;;8323344;28;20186;-63
2023/10/22 04:31:41;;;;;;;13.77;11.80;;;12.10;99.90;;;;;;8341364;28;20251;-63
2023/10/22 04:35:42;;;;;;;17.20;12.30;;;12.10;99.90;;;;;;8324565;28;20706;-67
2023/10/22 04:39:43;;;;;;;18.77;14.20;;;12.10;99.90;;;;;;8329413;28;20303;-67
2023/10/22 04:43:44;;;;;;;19.07;16.10;;;12.10;99.90;;;;;;8322770;28;20186;-66
2023/10/22 04:47:45;;;;;;;19.83;14.93;;;12.10;99.90;;;;;;8323861;28;20236;-67
2023/10/22 04:51:45;;;;;;;20.53;16.57;;;12.10;99.90;;;;;;8332446;28;20194;-67
2023/10/22 04:55:58;;;;;;;20.93;17.23;;;12.10;99.90;;;;;;8325889;28;20209;-67
2023/10/22 04:59:58;;;;;;;22.83;17.87;;;12.10;99.90;;;;;;8327616;28;20232;-66
2023/10/22 05:03:59;;;;;;;24.43;19.07;;;12.10;99.90;;;;;;8322205;28;20186;-66
2023/10/22 05:08:00;;;;;;;23.77;18.77;;;12.20;99.90;;;;;;8331855;28;20296;-67
2023/10/22 05:12:01;;;;;;;24.67;18.53;;;12.10;99.90;;;;;;8342273;28;20196;-67
2023/10/22 05:16:01;;;;;;;21.17;16.60;;;12.10;99.90;;;;;;8335515;28;20233;-67
2023/10/22 05:20:03;;;;;;;21.50;16.43;;;12.10;99.90;;;;;;8331015;28;20208;-66
2023/10/22 05:24:05;;;;;;;22.07;16.77;;;12.10;99.90;;;;;;8347794;28;20181;-67
2023/10/22 05:28:06;;;;;;;21.20;15.97;;;12.10;99.90;;;;;;8339334;28;20241;-66
2023/10/22 05:32:08;;;;;;;23.63;16.70;;;12.10;99.90;;;;;;8329637;28;20178;-66
2023/10/22 05:36:19;;;;;;;25.07;16.53;;;12.10;99.90;;;;;;8339411;28;20295;-68
2023/10/22 05:40:20;;;;;;;22.70;17.33;;;12.10;99.90;;;;;;8330576;28;20186;-66
2023/10/22 05:44:24;;;;;;;26.80;16.90;;;12.10;99.90;;;;;;8330065;28;20211;-62
2023/10/22 05:48:28;;;;;;;22.63;18.00;;;12.20;99.90;;;;;;8328852;28;20190;-63
2023/10/22 05:52:29;;;;;;;23.97;18.60;;;12.20;99.90;;;;;;8326237;28;20182;-62
2023/10/22 05:56:32;;;;;;;22.53;18.50;;;12.20;99.90;;;;;;8332279;28;20319;-65
2023/10/22 06:00:33;;;;;;;22.73;18.23;;;12.20;99.90;;;;;;8329245;28;20199;-65
2023/10/22 06:04:35;;;;;;;21.93;18.33;;;12.20;99.90;;;;;;8331608;28;20190;-66
2023/10/22 06:09:14;;;;;;;20.53;16.87;;;12.20;99.90;;;;;;8326177;28;20190;-65
2023/10/22 06:13:15;;;;;;;18.93;16.27;;;12.20;99.90;;;;;;8324487;28;20197;-65
2023/10/22 06:17:15;;;;;;;17.37;14.57;;;12.20;99.90;;;;;;8332015;28;20178;-67
2023/10/22 06:21:16;;;;;;;17.10;13.20;;;12.10;99.90;;;;;;8324012;28;20178;-65
2023/10/22 06:25:17;;;;;;;15.47;12.73;;;12.10;99.90;;;;;;8327930;28;20177;-65
2023/10/22 06:29:18;;;;;;;12.77;11.07;;;12.00;99.90;;;;;;8325458;28;20186;-66
2023/10/22 06:33:18;;;;;;;11.70;10.03;;;12.00;99.90;;;;;;8327156;28;20186;-63
2023/10/22 06:37:19;;;;;;;9.90;8.97;;;12.00;99.90;;;;;;8328435;28;20182;-66
2023/10/22 06:41:26;;;;;;;9.07;7.90;;;11.90;99.90;;;;;;8325757;28;20182;-65
2023/10/22 06:45:27;;;;;;;8.67;6.47;;;11.90;99.90;;;;;;8326343;28;20272;-63
2023/10/22 06:49:29;;;;;;;7.20;6.47;;;11.80;99.90;;;;;;8324558;28;20523;-66
2023/10/22 06:53:30;;;;;;;8.63;5.80;;;11.80;99.90;;;;;;8324815;28;20222;-64
2023/10/22 06:57:31;;;;;;;5.37;4.83;;;11.70;99.90;;;;;;8326673;28;20185;-66
2023/10/22 07:01:32;;;;;;;5.03;4.40;;;11.60;99.90;;;;;;8326196;28;20213;-66
2023/10/22 07:05:32;;;;;;;6.27;4.83;;;11.60;99.90;;;;;;8322423;28;20195;-66
2023/10/22 07:09:34;;;;;;;5.20;4.63;;;11.60;99.90;;;;;;8325610;28;20216;-65
2023/10/22 07:13:35;;;;;;;5.10;4.60;;;11.60;99.90;;;;;;8321888;28;20242;-63
2023/10/22 07:17:36;;;;;;;5.30;4.10;;;11.60;99.90;;;;;;8322661;28;20188;-65
2023/10/22 07:21:37;;;;;;;5.50;4.53;;;11.60;99.90;;;;;;8323291;28;20190;-63
2023/10/22 07:25:38;;;;;;;8.20;4.33;;;11.60;99.90;;;;;;8322344;28;20279;-64
2023/10/22 07:29:38;;;;;;;4.60;4.00;;;11.60;99.90;;;;;;8322663;28;20271;-66
2023/10/22 07:33:39;;;;;;;7.13;4.03;;;11.60;99.90;;;;;;8322342;28;20209;-65
2023/10/22 07:37:42;;;;;;;4.07;3.60;;;11.60;99.90;;;;;;8356138;28;20189;-66
2023/10/22 07:41:42;;;;;;;5.20;3.70;;;11.60;99.90;;;;;;8324677;28;20182;-66
2023/10/22 07:45:43;;;;;;;4.10;3.57;;;11.60;99.90;;;;;;8323788;28;20204;-66
2023/10/22 07:49:44;;;;;;;3.80;3.50;;;11.60;99.90;;;;;;8321179;28;20218;-65
2023/10/22 07:53:48;;;;;;;3.53;3.00;;;11.60;99.90;;;;;;8320611;28;20217;-64
2023/10/22 07:57:50;;;;;;;2.70;2.50;;;11.60;99.90;;;;;;8317263;28;20221;-64
2023/10/22 08:01:50;;;;;;;2.73;2.30;;;11.50;99.90;;;;;;8322701;28;20453;-65
2023/10/22 08:05:51;;;;;;;2.30;2.10;;;11.60;99.90;;;;;;8322212;28;20204;-65
2023/10/22 08:09:52;;;;;;;3.20;2.10;;;11.50;99.90;;;;;;8339176;28;20285;-66
2023/10/22 08:13:53;;;;;;;3.10;1.80;;;11.50;99.90;;;;;;8324184;28;20212;-68
2023/10/22 08:17:53;;;;;;;1.57;1.43;;;11.50;99.90;;;;;;8320625;28;20264;-66
2023/10/22 08:21:54;;;;;;;1.90;1.60;;;11.50;99.90;;;;;;8324995;28;20182;-65
2023/10/22 08:25:55;;;;;;;1.13;1.03;;;11.50;99.90;;;;;;8309198;28;20196;-68
2023/10/22 08:29:56;;;;;;;1.23;1.07;;;11.50;99.90;;;;;;8317062;28;20542;-64
2023/10/22 08:33:57;;;;;;;1.57;1.10;;;11.50;99.90;;;;;;8328620;28;20236;-69
2023/10/22 08:37:58;;;;;;;1.20;1.10;;;11.50;99.90;;;;;;8322125;28;20190;-67
2023/10/22 08:42:07;;;;;;;1.30;1.20;;;11.60;99.90;;;;;;8324120;28;20250;-68
2023/10/22 08:46:08;;;;;;;1.17;1.07;;;11.50;99.90;;;;;;8328162;28;20181;-69
2023/10/22 08:50:11;;;;;;;1.67;0.90;;;11.50;99.90;;;;;;8334339;28;20209;-68
2023/10/22 08:54:12;;;;;;;5.63;2.03;;;11.50;99.90;;;;;;8325349;28;20327;-67
2023/10/22 08:58:19;;;;;;;1.60;1.50;;;11.60;99.90;;;;;;8327457;28;20204;-68
2023/10/22 09:02:26;;;;;;;1.80;1.47;;;11.50;99.90;;;;;;8328494;28;20327;-67
2023/10/22 09:06:27;;;;;;;1.50;1.40;;;11.50;99.90;;;;;;8326161;28;20440;-67
2023/10/22 09:10:31;;;;;;;1.83;1.40;;;11.50;99.90;;;;;;8330012;28;20221;-68
2023/10/22 09:14:31;;;;;;;2.13;1.33;;;11.60;99.90;;;;;;8332733;28;20301;-69
2023/10/22 09:18:32;;;;;;;1.57;1.33;;;11.60;99.90;;;;;;8329861;28;20217;-66
2023/10/22 09:22:34;;;;;;;2.73;1.67;;;11.50;99.90;;;;;;8326850;28;20214;-67
2023/10/22 09:26:49;;;;;;;1.43;1.20;;;11.60;99.90;;;;;;8327110;28;20230;-65
2023/10/22 09:31:03;;;;;;;1.87;1.23;;;11.60;99.90;;;;;;8328873;28;20285;-65
2023/10/22 09:35:13;;;;;;;2.63;1.70;;;11.60;99.90;;;;;;8330406;28;20214;-67
2023/10/22 09:39:39;;;;;;;2.90;1.50;;;11.60;99.90;;;;;;8329063;28;20221;-63
2023/10/22 09:43:41;;;;;;;1.60;1.50;;;11.60;99.90;;;;;;8326243;28;20363;-66
2023/10/22 09:47:45;;;;;;;2.43;1.93;;;11.70;99.90;;;;;;8325793;28;20191;-69
2023/10/22 09:51:50;;;;;;;2.43;1.80;;;11.70;99.90;;;;;;8327750;28;20278;-67
2023/10/22 09:55:53;;;;;;;3.97;2.30;;;11.70;99.90;;;;;;8332534;28;20329;-68
2023/10/22 09:59:58;;;;;;;2.90;2.20;;;11.70;99.90;;;;;;8330124;28;20265;-66
2023/10/22 10:04:02;;;;;;;2.20;2.00;;;11.80;99.90;;;;;;8328061;28;20254;-67
2023/10/22 10:08:04;;;;;;;4.27;2.73;;;11.80;99.90;;;;;;8328460;28;20240;-67
2023/10/22 10:12:12;;;;;;;2.30;2.00;;;11.90;99.90;;;;;;8327379;28;20491;-67
2023/10/22 10:16:13;;;;;;;2.40;2.13;;;11.90;99.90;;;;;;8331632;28;20209;-64
2023/10/22 10:20:26;;;;;;;3.80;1.83;;;12.00;99.90;;;;;;8326142;28;20186;-64
2023/10/22 10:24:28;;;;;;;3.87;2.07;;;12.00;99.90;;;;;;8327801;28;20506;-65
2023/10/22 10:28:40;;;;;;;1.87;1.60;;;12.10;99.90;;;;;;8327690;28;20221;-67
2023/10/22 10:32:43;;;;;;;5.23;1.60;;;12.20;99.90;;;;;;8330892;28;20194;-66
2023/10/22 10:36:44;;;;;;;2.00;1.77;;;12.30;99.90;;;;;;8326397;28;20509;-66
2023/10/22 10:40:52;;;;;;;2.20;1.50;;;12.30;99.90;;;;;;8327746;28;20178;-67
2023/10/22 10:44:57;;;;;;;2.17;1.17;;;12.30;99.90;;;;;;8327588;28;20190;-66
2023/10/22 10:48:58;;;;;;;1.93;1.30;;;12.40;99.90;;;;;;8328079;28;20189;-66
2023/10/22 10:53:00;;;;;;;1.10;1.00;;;12.40;99.90;;;;;;8323957;28;20194;-68
2023/10/22 10:57:00;;;;;;;1.00;0.90;;;12.40;99.90;;;;;;8329663;28;20218;-68
2023/10/22 11:01:01;;;;;;;2.03;0.67;;;12.50;99.90;;;;;;8331946;28;20252;-69
2023/10/22 11:05:02;;;;;;;1.00;0.67;;;12.60;99.90;;;;;;8324919;28;20198;-69
2023/10/22 11:09:05;;;;;;;1.00;0.50;;;12.70;99.90;;;;;;8326071;28;20241;-69
2023/10/22 11:13:07;;;;;;;1.60;0.70;;;12.70;99.90;;;;;;8325078;28;20187;-69
2023/10/22 11:17:08;;;;;;;1.57;0.93;;;12.80;99.90;;;;;;8324087;28;20435;-70
2023/10/22 11:21:09;;;;;;;0.90;0.50;;;12.90;99.90;;;;;;8323033;28;20205;-69
2023/10/22 11:25:10;;;;;;;0.90;0.67;;;12.90;99.90;;;;;;8328763;28;20189;-69
2023/10/22 11:29:11;;;;;;;1.87;0.70;;;13.00;99.90;;;;;;8339310;28;20193;-69
2023/10/22 11:33:27;;;;;;;1.87;1.00;;;13.00;99.90;;;;;;8325067;28;20468;-68
2023/10/22 11:37:37;;;;;;;3.10;1.20;;;13.00;99.90;;;;;;8340422;28;20187;-69
2023/10/22 11:41:37;;;;;;;1.87;1.13;;;13.00;99.90;;;;;;8324464;28;20189;-68
2023/10/22 11:45:50;;;;;;;2.00;1.03;;;13.20;99.90;;;;;;8323035;28;20186;-69
2023/10/22 11:49:51;;;;;;;1.67;0.73;;;13.20;99.90;;;;;;8327292;28;20276;-69
2023/10/22 11:53:58;;;;;;;1.93;1.13;;;13.20;99.90;;;;;;8320035;28;20315;-71
2023/10/22 11:57:59;;;;;;;1.70;0.80;;;13.30;99.90;;;;;;8323230;28;20201;-71
2023/10/22 12:01:59;;;;;;;0.80;0.50;;;13.50;99.90;;;;;;8349809;28;20212;-70
2023/10/22 12:06:00;;;;;;;0.80;0.50;;;13.60;99.90;;;;;;8325233;28;20221;-66
2023/10/22 12:10:02;;;;;;;1.27;0.60;;;13.70;99.90;;;;;;8353155;28;20205;-67
2023/10/22 12:14:03;;;;;;;1.47;0.53;;;13.80;99.90;;;;;;8323639;28;20210;-69
2023/10/22 12:18:05;;;;;;;1.70;0.53;;;13.80;99.90;;;;;;8324790;28;20536;-69
2023/10/22 12:22:06;;;;;;;2.83;0.60;;;13.80;99.90;;;;;;8319989;28;20183;-69
2023/10/22 12:26:10;;;;;;;2.40;0.73;;;13.90;99.90;;;;;;8319750;28;20196;-67
2023/10/22 12:30:11;;;;;;;1.70;0.50;;;14.00;99.90;;;;;;8320188;28;20355;-63
2023/10/22 12:34:12;;;;;;;0.77;0.60;;;14.00;99.90;;;;;;8321317;28;20205;-66
2023/10/22 12:38:13;;;;;;;1.17;0.53;;;14.30;99.90;;;;;;8324975;28;20217;-67
2023/10/22 12:42:14;;;;;;;0.60;0.40;;;14.50;99.90;;;;;;8324374;28;20190;-65
2023/10/22 12:46:15;;;;;;;1.93;0.60;;;14.40;99.90;;;;;;8320352;28;20533;-67
2023/10/22 12:50:16;;;;;;;2.97;0.50;;;14.40;99.90;;;;;;8318534;28;20332;-66
2023/10/22 12:54:17;;;;;;;2.50;0.53;;;14.30;99.90;;;;;;8338530;28;20236;-65
2023/10/22 12:58:18;;;;;;;5.70;0.90;;;14.30;99.90;;;;;;8319992;28;20187;-65
2023/10/22 13:02:19;;;;;;;2.27;1.17;;;14.30;99.90;;;;;;8321482;28;20209;-65
2023/10/22 13:06:22;;;;;;;1.00;0.70;;;14.30;99.90;;;;;;8317219;28;20199;-63
2023/10/22 13:10:23;;;;;;;1.40;0.60;;;14.30;99.90;;;;;;8318966;28;20656;-65
2023/10/22 13:14:25;;;;;;;1.80;0.70;;;14.30;99.90;;;;;;8323751;28;20273;-64
2023/10/22 13:18:26;;;;;;;2.07;1.20;;;14.40;99.90;;;;;;8327164;28;20435;-64
2023/10/22 13:22:28;;;;;;;1.93;0.90;;;14.30;99.90;;;;;;8323200;28;20251;-63
2023/10/22 13:26:28;;;;;;;2.60;0.90;;;14.30;99.90;;;;;;8318149;28;20186;-65
2023/10/22 13:30:29;;;;;;;3.60;0.70;;;14.30;99.90;;;;;;8322881;28;20188;-65
2023/10/22 13:34:31;;;;;;;3.03;0.73;;;14.40;99.90;;;;;;8331382;28;20226;-70
2023/10/22 13:38:33;;;;;;;2.23;0.87;;;14.50;99.90;;;;;;8328041;28;20178;-69
2023/10/22 13:42:34;;;;;;;2.23;0.90;;;14.70;99.90;;;;;;8325819;28;20395;-68
2023/10/22 13:46:36;;;;;;;2.50;1.00;;;14.80;99.90;;;;;;8325104;28;20276;-69
2023/10/22 13:50:37;;;;;;;3.73;1.20;;;15.00;99.90;;;;;;8331758;28;20464;-68
2023/10/22 13:54:38;;;;;;;4.00;1.00;;;15.20;99.90;;;;;;8326398;28;20312;-69
2023/10/22 13:58:39;;;;;;;7.37;1.20;;;15.30;99.90;;;;;;8325257;28;20523;-69
2023/10/22 14:02:40;;;;;;;2.23;0.90;;;15.20;99.90;;;;;;8335433;28;20610;-68
2023/10/22 14:06:41;;;;;;;2.73;1.00;;;15.50;99.90;;;;;;8327666;28;20226;-68
2023/10/22 14:10:43;;;;;;;2.53;0.53;;;15.50;99.90;;;;;;8328147;28;20204;-69
2023/10/22 14:14:44;;;;;;;1.73;0.80;;;15.40;99.90;;;;;;8332463;28;20210;-68
2023/10/22 14:18:45;;;;;;;3.77;1.00;;;15.30;99.90;;;;;;8326438;28;20490;-68
2023/10/22 14:22:46;;;;;;;2.00;0.97;;;15.20;99.90;;;;;;8330223;28;20185;-68
2023/10/22 14:26:47;;;;;;;2.13;0.70;;;15.30;99.90;;;;;;8324674;28;20190;-69
2023/10/22 14:30:47;;;;;;;4.47;1.20;;;15.30;99.90;;;;;;8324233;28;20190;-69
2023/10/22 14:34:48;;;;;;;1.73;0.90;;;15.30;99.90;;;;;;8323384;28;20203;-68
2023/10/22 14:38:49;;;;;;;1.87;0.90;;;15.30;99.90;;;;;;8331344;28;20197;-69
2023/10/22 14:42:50;;;;;;;2.80;1.00;;;15.30;99.90;;;;;;8323840;28;20205;-69
2023/10/22 14:46:51;;;;;;;6.60;0.90;;;15.40;99.90;;;;;;8326761;28;20197;-69
2023/10/22 14:50:59;;;;;;;4.23;1.60;;;15.40;99.90;;;;;;8325617;28;20245;-69
2023/10/22 14:55:00;;;;;;;2.63;1.27;;;15.20;99.90;;;;;;8326045;28;20324;-69
2023/10/22 14:59:00;;;;;;;3.47;1.93;;;14.90;99.90;;;;;;8323354;28;20202;-69
2023/10/22 15:03:01;;;;;;;3.40;2.57;;;14.70;99.90;;;;;;8321734;28;20190;-69
2023/10/22 15:07:03;;;;;;;3.30;2.10;;;14.50;99.90;;;;;;8322229;28;20186;-69
2023/10/22 15:11:04;;;;;;;4.67;2.17;;;14.40;99.90;;;;;;8323681;28;20285;-68
2023/10/22 15:15:05;;;;;;;2.37;1.37;;;14.30;99.90;;;;;;8324416;28;20215;-69
2023/10/22 15:19:07;;;;;;;2.23;1.20;;;14.20;99.90;;;;;;8325311;28;20211;-68
2023/10/22 15:23:08;;;;;;;2.57;1.07;;;14.10;99.90;;;;;;8328408;28;20186;-68
2023/10/22 15:27:09;;;;;;;1.23;0.90;;;13.90;99.90;;;;;;8328172;28;20182;-68
2023/10/22 15:31:10;;;;;;;1.10;0.70;;;13.70;99.90;;;;;;8325717;28;20774;-67
2023/10/22 15:35:11;;;;;;;1.73;0.80;;;13.60;99.90;;;;;;8325940;28;20233;-67
2023/10/22 15:39:12;;;;;;;1.40;0.97;;;13.40;99.90;;;;;;8326370;28;20476;-68
2023/10/22 15:43:13;;;;;;;1.40;0.77;;;13.30;99.90;;;;;;8324343;28;20205;-69
2023/10/22 15:47:14;;;;;;;2.30;1.13;;;13.20;99.90;;;;;;8321832;28;20194;-68
2023/10/22 15:51:19;;;;;;;3.13;1.07;;;13.10;99.90;;;;;;8326213;28;20198;-69
2023/10/22 15:55:20;;;;;;;2.50;1.23;;;13.10;99.90;;;;;;8321877;28;20206;-69
2023/10/22 15:59:21;;;;;;;2.07;1.37;;;13.00;99.90;;;;;;8321893;28;20208;-69
2023/10/22 16:03:22;;;;;;;3.77;1.63;;;12.90;99.90;;;;;;8320479;28;20180;-65
2023/10/22 16:07:23;;;;;;;4.47;1.43;;;12.80;99.90;;;;;;8328086;28;20192;-65
2023/10/22 16:11:24;;;;;;;3.60;1.50;;;12.70;99.90;;;;;;8323505;28;20240;-63
2023/10/22 16:15:24;;;;;;;3.90;1.30;;;12.50;99.90;;;;;;8341360;28;20214;-62
2023/10/22 16:19:26;;;;;;;3.23;1.27;;;12.30;99.90;;;;;;8324297;28;20177;-62
2023/10/22 16:23:27;;;;;;;1.87;1.20;;;12.10;99.90;;;;;;8326001;28;20186;-62
2023/10/22 16:27:28;;;;;;;5.73;1.40;;;12.00;99.90;;;;;;8319411;28;20239;-63
2023/10/22 16:31:30;;;;;;;6.47;1.20;;;11.80;99.90;;;;;;8322978;28;20182;-62
2023/10/22 16:35:31;;;;;;;3.50;0.97;;;11.70;99.90;;;;;;8323321;28;20326;-64
2023/10/22 16:39:32;;;;;;;2.30;1.30;;;11.50;99.90;;;;;;8322169;28;20572;-60
2023/10/22 16:43:33;;;;;;;4.43;1.17;;;11.40;99.90;;;;;;8323245;28;20179;-61
2023/10/22 16:47:33;;;;;;;3.63;1.40;;;11.30;99.90;;;;;;8321750;28;20200;-61
2023/10/22 16:51:34;;;;;;;2.03;0.90;;;11.30;99.90;;;;;;8322728;28;20196;-60
2023/10/22 16:55:36;;;;;;;2.67;1.17;;;11.20;99.90;;;;;;8324658;28;20246;-62
2023/10/22 16:59:37;;;;;;;2.37;1.20;;;11.10;99.90;;;;;;8320202;28;20217;-61
2023/10/22 17:03:38;;;;;;;5.40;1.53;;;11.00;99.90;;;;;;8322291;28;20184;-63
2023/10/22 17:07:39;;;;;;;4.23;1.63;;;10.90;99.90;;;;;;8321828;28;20182;-60
2023/10/22 17:11:40;;;;;;;3.77;1.50;;;10.90;99.90;;;;;;8329723;28;20272;-62
2023/10/22 17:15:41;;;;;;;2.10;1.23;;;10.90;99.90;;;;;;8345865;28;20206;-62
2023/10/22 17:19:43;;;;;;;3.37;1.77;;;10.90;99.90;;;;;;8324216;28;20205;-63
2023/10/22 17:23:44;;;;;;;5.33;1.77;;;10.90;99.90;;;;;;8330862;28;20182;-68
2023/10/22 17:27:44;;;;;;;4.53;1.40;;;10.90;99.90;;;;;;8344383;28;20259;-66
2023/10/22 17:31:46;;;;;;;3.90;1.67;;;10.90;99.90;;;;;;8334050;28;20189;-68
2023/10/22 17:35:57;;;;;;;3.00;1.70;;;10.90;99.90;;;;;;8340241;28;20271;-69
2023/10/22 17:39:58;;;;;;;4.77;2.20;;;10.90;99.90;;;;;;8339929;28;20201;-65
2023/10/22 17:43:59;;;;;;;3.83;1.77;;;10.90;99.90;;;;;;8359035;28;20241;-66
2023/10/22 17:48:00;;;;;;;4.90;1.77;;;10.90;99.90;;;;;;8338510;28;20218;-68
2023/10/22 17:52:01;;;;;;;2.80;1.43;;;10.90;99.90;;;;;;8333180;28;20194;-68
2023/10/22 17:56:04;;;;;;;2.10;1.23;;;10.80;99.90;;;;;;8325483;28;20218;-68
2023/10/22 18:00:08;;;;;;;3.37;1.63;;;10.70;99.90;;;;;;8341322;28;20227;-69
2023/10/22 18:04:09;;;;;;;2.93;1.60;;;10.70;99.90;;;;;;8346837;28;20283;-68
2023/10/22 18:08:10;;;;;;;3.60;1.37;;;10.60;99.90;;;;;;8335295;28;20293;-69
2023/10/22 18:12:11;;;;;;;3.67;1.60;;;10.60;99.90;;;;;;8340633;28;20361;-67
2023/10/22 18:16:21;;;;;;;4.07;1.60;;;10.40;99.90;;;;;;8346323;28;20209;-65
2023/10/22 18:20:22;;;;;;;3.87;1.63;;;10.30;99.90;;;;;;8333222;28;20201;-68
2023/10/22 18:24:25;;;;;;;3.10;1.33;;;10.10;99.90;;;;;;8351601;28;20189;-67
2023/10/22 18:28:33;;;;;;;4.40;1.50;;;10.00;99.90;;;;;;8346953;28;20193;-68
2023/10/22 18:32:34;;;;;;;4.93;1.87;;;9.80;99.90;;;;;;8345016;28;20196;-61
2023/10/22 18:36:35;;;;;;;3.00;1.83;;;9.80;99.90;;;;;;8322774;28;20221;-62
2023/10/22 18:40:36;;;;;;;4.23;2.20;;;9.60;99.90;;;;;;8341190;28;20280;-63
2023/10/22 18:44:36;;;;;;;4.57;2.80;;;9.50;99.90;;;;;;8320145;28;20189;-60
2023/10/22 18:48:37;;;;;;;7.87;3.67;;;9.50;99.90;;;;;;8325106;28;20196;-60
2023/10/22 18:52:38;;;;;;;8.57;4.20;;;9.40;99.90;;;;;;8329468;28;20188;-63
2023/10/22 18:56:39;;;;;;;6.50;4.17;;;9.40;99.90;;;;;;8324277;28;20238;-61
2023/10/22 19:00:40;;;;;;;6.67;3.70;;;9.30;99.90;;;;;;8325353;28;20213;-62
2023/10/22 19:04:42;;;;;;;7.23;4.00;;;9.30;99.90;;;;;;8320498;28;20185;-63
2023/10/22 19:08:44;;;;;;;6.17;3.70;;;9.20;99.90;;;;;;8321958;28;20203;-61
2023/10/22 19:12:45;;;;;;;6.97;3.47;;;9.10;99.90;;;;;;8331699;28;20203;-62
2023/10/22 19:16:45;;;;;;;5.20;3.50;;;9.10;99.90;;;;;;8323616;28;20568;-63
2023/10/22 19:20:57;;;;;;;7.53;3.80;;;9.00;99.90;;;;;;8323051;28;20455;-63
2023/10/22 19:24:58;;;;;;;6.30;4.37;;;9.00;99.90;;;;;;8322628;28;20282;-62
2023/10/22 19:28:59;;;;;;;8.03;4.57;;;8.90;99.90;;;;;;8318257;28;20231;-64
2023/10/22 19:33:00;;;;;;;8.60;4.37;;;9.00;99.90;;;;;;8331811;28;20214;-63
2023/10/22 19:37:01;;;;;;;9.43;4.20;;;9.10;99.90;;;;;;8320804;28;20212;-64
2023/10/22 19:41:02;;;;;;;9.00;4.40;;;9.20;99.90;;;;;;8320493;28;20187;-62
2023/10/22 19:45:03;;;;;;;8.10;3.77;;;9.20;99.90;;;;;;8330295;28;20191;-67
2023/10/22 19:49:08;;;;;;;9.17;3.97;;;9.30;99.90;;;;;;8326351;28;20192;-69
2023/10/22 19:53:08;;;;;;;9.60;3.77;;;9.20;99.90;;;;;;8324636;28;20195;-70
2023/10/22 19:57:11;;;;;;;6.77;3.20;;;9.20;99.90;;;;;;8321883;28;20215;-68
2023/10/22 20:01:16;;;;;;;8.20;3.50;;;9.30;99.90;;;;;;8324086;28;20313;-69
2023/10/22 20:05:17;;;;;;;6.77;3.37;;;9.20;99.90;;;;;;8319587;28;20239;-66
2023/10/22 20:09:18;;;;;;;9.93;3.40;;;9.20;99.90;;;;;;8317656;28;20357;-68
2023/10/22 20:13:18;;;;;;;4.43;3.07;;;9.10;99.90;;;;;;8322151;28;20192;-66
2023/10/22 20:17:20;;;;;;;6.20;2.90;;;9.00;99.90;;;;;;8325307;28;20253;-65
2023/10/22 20:21:22;;;;;;;5.20;2.60;;;8.90;99.90;;;;;;8325107;28;20214;-68
2023/10/22 20:25:24;;;;;;;5.03;2.70;;;8.90;99.90;;;;;;8321203;28;20184;-67
2023/10/22 20:29:25;;;;;;;3.93;2.80;;;8.80;99.90;;;;;;8324155;28;20234;-68
2023/10/22 20:33:28;;;;;;;7.13;2.97;;;8.80;99.90;;;;;;8323493;28;20188;-68
2023/10/22 20:37:29;;;;;;;5.50;2.87;;;8.70;99.90;;;;;;8324787;28;20219;-67
2023/10/22 20:41:31;;;;;;;6.83;3.30;;;8.60;99.90;;;;;;8327121;28;20342;-68
2023/10/22 20:45:32;;;;;;;7.40;3.30;;;8.60;99.90;;;;;;8334756;28;20189;-68
2023/10/22 20:49:33;;;;;;;5.83;3.60;;;8.60;99.90;;;;;;8331676;28;20197;-68
2023/10/22 20:53:36;;;;;;;6.10;3.67;;;8.50;99.90;;;;;;8330012;28;20204;-69